Time;durP1;ratioP1;P1;durP2;ratioP2;P2;SDS_P1;SDS_P2;PMS_P1;PMS_P2;Temp;Humidity;BMP_temperature;BMP_pressure;BME280_temperature;BME280_humidity;BME280_pressure;Samples;Min_cycle;Max_cycle;Signal;HPM_P1;HPM_P2
2023/06/25 00:00:59;;;;;;;16.65;9.18;;;;;;;;;;5048890;28;20041;-80
2023/06/25 00:03:26;;;;;;;17.30;8.90;;;;;;;;;;5047782;28;20128;-79
2023/06/25 00:05:53;;;;;;;14.23;8.35;;;;;;;;;;5050146;28;20053;-79
2023/06/25 00:08:20;;;;;;;23.48;8.93;;;;;;;;;;5050173;28;20045;-80
2023/06/25 00:10:47;;;;;;;18.92;8.90;;;;;;;;;;5048063;28;20055;-80
2023/06/25 00:13:13;;;;;;;12.63;8.65;;;;;;;;;;5050488;28;20045;-80
2023/06/25 00:15:40;;;;;;;17.48;8.65;;;;;;;;;;5048309;28;20052;-81
2023/06/25 00:18:08;;;;;;;18.13;8.48;;;;;;;;;;5049893;28;20660;-82
2023/06/25 00:20:34;;;;;;;17.35;8.73;;;;;;;;;;5049636;28;20064;-81
2023/06/25 00:23:02;;;;;;;16.65;9.27;;;;;;;;;;5050852;28;20045;-81
2023/06/25 00:25:33;;;;;;;19.00;9.25;;;;;;;;;;5049585;28;20041;-81
2023/06/25 00:28:00;;;;;;;14.70;8.93;;;;;;;;;;5050841;28;20080;-80
2023/06/25 00:30:28;;;;;;;20.55;8.63;;;;;;;;;;5032203;28;20064;-81
2023/06/25 00:32:55;;;;;;;16.50;8.65;;;;;;;;;;5046721;28;20045;-80
2023/06/25 00:35:27;;;;;;;15.93;8.68;;;;;;;;;;5050232;28;20083;-81
2023/06/25 00:38:01;;;;;;;21.70;9.27;;;;;;;;;;5050124;28;20045;-80
2023/06/25 00:40:28;;;;;;;19.77;9.35;;;;;;;;;;5049270;28;20053;-78
2023/06/25 00:42:58;;;;;;;16.00;9.55;;;;;;;;;;5050542;28;20135;-83
2023/06/25 00:45:26;;;;;;;16.92;10.13;;;;;;;;;;5057867;28;20076;-81
2023/06/25 00:47:53;;;;;;;16.02;9.60;;;;;;;;;;5051706;28;20064;-81
2023/06/25 00:50:21;;;;;;;14.98;10.15;;;;;;;;;;5050923;28;20067;-81
2023/06/25 00:53:01;;;;;;;26.08;10.20;;;;;;;;;;5053637;28;20071;-81
2023/06/25 00:55:28;;;;;;;23.83;9.82;;;;;;;;;;5051891;28;20087;-79
2023/06/25 00:57:56;;;;;;;20.30;10.43;;;;;;;;;;5051328;28;20135;-81
2023/06/25 01:00:24;;;;;;;19.60;10.50;;;;;;;;;;5051749;28;20049;-79
2023/06/25 01:03:07;;;;;;;19.27;10.48;;;;;;;;;;5054077;28;20049;-80
2023/06/25 01:05:46;;;;;;;17.23;10.48;;;;;;;;;;5031828;28;20053;-81
2023/06/25 01:08:14;;;;;;;18.05;10.55;;;;;;;;;;5032539;28;20671;-82
2023/06/25 01:10:41;;;;;;;23.92;11.00;;;;;;;;;;5032708;28;20472;-82
2023/06/25 01:13:08;;;;;;;19.83;9.45;;;;;;;;;;5033487;28;20041;-82
2023/06/25 01:15:35;;;;;;;16.08;9.32;;;;;;;;;;5033392;28;20080;-82
2023/06/25 01:18:04;;;;;;;15.80;9.82;;;;;;;;;;5030497;28;20060;-81
2023/06/25 01:20:38;;;;;;;21.27;9.07;;;;;;;;;;5031065;28;20045;-82
2023/06/25 01:23:05;;;;;;;21.50;9.02;;;;;;;;;;5033508;28;20045;-80
2023/06/25 01:25:31;;;;;;;18.67;9.30;;;;;;;;;;5030945;28;20049;-82
2023/06/25 01:27:58;;;;;;;17.42;9.02;;;;;;;;;;5030061;28;20052;-82
2023/06/25 01:30:27;;;;;;;19.95;9.18;;;;;;;;;;5031672;28;20136;-81
2023/06/25 01:32:54;;;;;;;21.83;10.30;;;;;;;;;;5031140;28;20045;-80
2023/06/25 01:35:20;;;;;;;20.02;9.75;;;;;;;;;;5031723;28;20054;-80
2023/06/25 01:37:47;;;;;;;22.38;9.52;;;;;;;;;;5031110;28;20071;-80
2023/06/25 01:40:13;;;;;;;16.30;9.75;;;;;;;;;;5032238;28;20045;-81
2023/06/25 01:42:40;;;;;;;21.65;10.75;;;;;;;;;;5013815;28;20048;-82
2023/06/25 01:45:08;;;;;;;18.80;10.15;;;;;;;;;;5042831;28;20353;-81
2023/06/25 01:47:36;;;;;;;18.83;9.77;;;;;;;;;;5070138;28;20052;-81
2023/06/25 01:50:03;;;;;;;24.75;9.98;;;;;;;;;;5073160;28;20512;-81
2023/06/25 01:52:31;;;;;;;16.42;9.68;;;;;;;;;;5070360;28;20056;-79
2023/06/25 01:55:00;;;;;;;19.08;9.82;;;;;;;;;;5053938;28;20036;-79
2023/06/25 01:57:26;;;;;;;14.65;8.93;;;;;;;;;;5055534;28;20105;-80
2023/06/25 01:59:53;;;;;;;14.95;8.73;;;;;;;;;;5050358;28;20365;-81
2023/06/25 02:02:19;;;;;;;17.40;9.20;;;;;;;;;;5050641;28;20534;-81
2023/06/25 02:04:46;;;;;;;19.95;9.75;;;;;;;;;;5052662;28;20040;-80
2023/06/25 02:07:13;;;;;;;16.88;9.60;;;;;;;;;;5049523;28;20041;-80
2023/06/25 02:09:40;;;;;;;17.98;9.18;;;;;;;;;;5032024;28;20059;-80
2023/06/25 02:12:07;;;;;;;17.10;10.02;;;;;;;;;;5049508;28;20064;-79
2023/06/25 02:14:34;;;;;;;18.23;9.55;;;;;;;;;;5047654;28;20049;-79
2023/06/25 02:17:01;;;;;;;19.25;10.23;;;;;;;;;;5048893;28;20045;-81
2023/06/25 02:19:27;;;;;;;22.77;9.60;;;;;;;;;;5051605;28;20420;-81
2023/06/25 02:21:54;;;;;;;19.20;10.05;;;;;;;;;;5048549;28;20088;-81
2023/06/25 02:24:21;;;;;;;17.88;10.40;;;;;;;;;;5051975;28;20390;-82
2023/06/25 02:26:47;;;;;;;24.67;9.90;;;;;;;;;;5050329;28;20052;-81
2023/06/25 02:29:14;;;;;;;18.13;8.82;;;;;;;;;;5052089;28;20048;-81
2023/06/25 02:31:40;;;;;;;18.05;9.10;;;;;;;;;;5049527;28;20045;-82
2023/06/25 02:34:07;;;;;;;23.15;9.07;;;;;;;;;;5052145;28;20104;-82
2023/06/25 02:36:34;;;;;;;22.50;10.20;;;;;;;;;;5046476;28;20087;-81
2023/06/25 02:39:00;;;;;;;16.35;9.60;;;;;;;;;;5049758;28;20044;-81
2023/06/25 02:41:27;;;;;;;15.45;9.52;;;;;;;;;;5050373;28;20060;-82
2023/06/25 02:43:54;;;;;;;17.48;9.40;;;;;;;;;;5058430;28;20160;-81
2023/06/25 02:46:21;;;;;;;19.73;9.63;;;;;;;;;;5055359;28;20374;-82
2023/06/25 02:48:47;;;;;;;18.23;9.32;;;;;;;;;;5050332;28;20127;-81
2023/06/25 02:51:14;;;;;;;19.90;9.23;;;;;;;;;;5032900;28;20507;-81
2023/06/25 02:53:41;;;;;;;20.58;10.05;;;;;;;;;;5049529;28;20057;-80
2023/06/25 02:56:08;;;;;;;22.42;10.40;;;;;;;;;;5049816;28;20511;-81
2023/06/25 02:58:34;;;;;;;17.02;10.00;;;;;;;;;;5032966;28;20095;-81
2023/06/25 03:01:01;;;;;;;24.27;10.45;;;;;;;;;;5016595;28;20051;-82
2023/06/25 03:03:28;;;;;;;20.25;11.18;;;;;;;;;;5050525;28;20129;-81
2023/06/25 03:05:55;;;;;;;20.30;11.25;;;;;;;;;;5049917;28;20088;-81
2023/06/25 03:08:21;;;;;;;21.35;10.75;;;;;;;;;;5048179;28;20045;-80
2023/06/25 03:10:48;;;;;;;23.05;11.65;;;;;;;;;;5048516;28;20052;-81
2023/06/25 03:13:14;;;;;;;19.38;12.07;;;;;;;;;;5050010;28;20037;-83
2023/06/25 03:15:43;;;;;;;24.20;11.90;;;;;;;;;;5047272;28;20049;-82
2023/06/25 03:18:09;;;;;;;20.25;11.73;;;;;;;;;;5048807;28;20044;-81
2023/06/25 03:20:36;;;;;;;20.27;11.52;;;;;;;;;;5048476;28;20143;-81
2023/06/25 03:23:02;;;;;;;19.67;12.07;;;;;;;;;;5032640;28;20065;-82
2023/06/25 03:25:29;;;;;;;23.45;11.50;;;;;;;;;;5048703;28;20079;-81
2023/06/25 03:28:12;;;;;;;20.73;10.98;;;;;;;;;;5048951;28;20049;-82
2023/06/25 03:30:39;;;;;;;25.55;11.48;;;;;;;;;;5047491;28;20082;-82
2023/06/25 03:33:06;;;;;;;23.13;11.52;;;;;;;;;;5049076;28;20056;-80
2023/06/25 03:35:33;;;;;;;19.73;11.20;;;;;;;;;;5052275;28;20048;-81
2023/06/25 03:38:03;;;;;;;21.25;11.05;;;;;;;;;;5049369;28;20048;-81
2023/06/25 03:40:30;;;;;;;24.70;11.32;;;;;;;;;;5047269;28;20048;-82
2023/06/25 03:42:57;;;;;;;29.38;11.02;;;;;;;;;;5051661;28;20044;-80
2023/06/25 03:45:24;;;;;;;25.90;11.82;;;;;;;;;;5068378;28;20521;-79
2023/06/25 03:47:50;;;;;;;25.90;11.25;;;;;;;;;;5076617;28;20131;-80
2023/06/25 03:50:17;;;;;;;21.17;11.18;;;;;;;;;;5075601;28;21004;-81
2023/06/25 03:52:44;;;;;;;23.67;11.43;;;;;;;;;;5077010;28;20046;-80
2023/06/25 03:55:10;;;;;;;19.17;11.25;;;;;;;;;;5075110;28;20075;-81
2023/06/25 03:57:37;;;;;;;22.83;11.07;;;;;;;;;;5066661;28;20036;-82
2023/06/25 04:00:04;;;;;;;23.15;10.93;;;;;;;;;;5067392;28;20044;-82
2023/06/25 04:02:38;;;;;;;16.30;10.82;;;;;;;;;;5060886;28;20550;-80
2023/06/25 04:05:05;;;;;;;21.10;11.32;;;;;;;;;;5068324;28;20045;-81
2023/06/25 04:07:32;;;;;;;23.23;11.00;;;;;;;;;;5067747;28;20037;-81
2023/06/25 04:09:59;;;;;;;20.90;11.70;;;;;;;;;;5067722;28;20045;-82
2023/06/25 04:12:25;;;;;;;20.83;10.93;;;;;;;;;;5067070;28;20059;-81
2023/06/25 04:14:54;;;;;;;18.33;11.20;;;;;;;;;;5065614;28;20145;-82
2023/06/25 04:17:22;;;;;;;22.63;11.73;;;;;;;;;;5069860;28;20079;-82
2023/06/25 04:19:52;;;;;;;21.15;10.40;;;;;;;;;;5071398;28;20827;-82
2023/06/25 04:22:19;;;;;;;18.52;10.98;;;;;;;;;;5073256;28;20535;-80
2023/06/25 04:24:46;;;;;;;19.23;10.52;;;;;;;;;;5065247;28;20516;-81
2023/06/25 04:27:13;;;;;;;25.55;11.52;;;;;;;;;;5068913;28;20168;-80
2023/06/25 04:29:40;;;;;;;19.20;11.60;;;;;;;;;;5071329;28;20055;-82
2023/06/25 04:32:07;;;;;;;23.80;11.77;;;;;;;;;;5070881;28;20115;-81
2023/06/25 04:34:35;;;;;;;21.63;11.80;;;;;;;;;;5050909;28;20037;-80
2023/06/25 04:37:02;;;;;;;19.83;12.48;;;;;;;;;;5028964;28;20060;-81
2023/06/25 04:39:29;;;;;;;19.90;11.35;;;;;;;;;;5031257;28;20046;-81
2023/06/25 04:41:58;;;;;;;19.70;12.10;;;;;;;;;;5017780;28;20042;-82
2023/06/25 04:44:25;;;;;;;19.15;11.65;;;;;;;;;;5051494;28;20063;-82
2023/06/25 04:46:52;;;;;;;19.92;12.18;;;;;;;;;;5047725;28;20061;-82
2023/06/25 04:49:18;;;;;;;19.00;11.23;;;;;;;;;;5036792;28;20131;-82
2023/06/25 04:51:45;;;;;;;19.42;12.05;;;;;;;;;;5049930;28;20087;-82
2023/06/25 04:54:12;;;;;;;19.52;11.07;;;;;;;;;;5051056;28;20147;-82
2023/06/25 04:56:39;;;;;;;19.55;11.13;;;;;;;;;;5048907;28;20128;-82
2023/06/25 04:59:06;;;;;;;21.52;11.70;;;;;;;;;;5050424;28;20045;-81
2023/06/25 05:01:33;;;;;;;16.10;10.05;;;;;;;;;;5050661;28;20079;-82
2023/06/25 05:03:59;;;;;;;18.23;10.43;;;;;;;;;;5051628;28;20045;-81
2023/06/25 05:06:26;;;;;;;16.40;10.32;;;;;;;;;;5050065;28;20045;-82
2023/06/25 05:08:53;;;;;;;23.73;10.73;;;;;;;;;;5048301;28;20044;-82
2023/06/25 05:11:19;;;;;;;19.65;10.82;;;;;;;;;;5050617;28;20047;-82
2023/06/25 05:13:46;;;;;;;15.98;10.13;;;;;;;;;;5050901;28;20049;-82
2023/06/25 05:16:12;;;;;;;19.10;10.30;;;;;;;;;;5050851;28;20049;-80
2023/06/25 05:18:39;;;;;;;15.65;9.50;;;;;;;;;;5042739;28;20127;-82
2023/06/25 05:21:06;;;;;;;17.67;9.55;;;;;;;;;;5051691;28;20094;-83
2023/06/25 05:23:42;;;;;;;15.95;10.07;;;;;;;;;;5051952;28;20045;-81
2023/06/25 05:26:08;;;;;;;20.15;10.15;;;;;;;;;;5048541;28;20113;-83
2023/06/25 05:28:35;;;;;;;15.40;9.85;;;;;;;;;;5050735;28;20083;-82
2023/06/25 05:31:01;;;;;;;17.48;9.85;;;;;;;;;;5049145;28;20061;-83
2023/06/25 05:33:28;;;;;;;14.23;9.25;;;;;;;;;;5051193;28;20107;-82
2023/06/25 05:35:54;;;;;;;14.93;9.15;;;;;;;;;;5049535;28;20107;-81
2023/06/25 05:38:21;;;;;;;13.80;8.93;;;;;;;;;;5048995;28;20045;-81
2023/06/25 05:40:48;;;;;;;18.85;9.27;;;;;;;;;;5051387;28;20104;-82
2023/06/25 05:43:14;;;;;;;14.38;9.07;;;;;;;;;;5059639;28;20044;-82
2023/06/25 05:45:41;;;;;;;14.38;8.88;;;;;;;;;;5050145;28;21289;-81
2023/06/25 05:48:08;;;;;;;15.68;8.57;;;;;;;;;;5043396;22;20038;-81
2023/06/25 05:50:35;;;;;;;14.32;8.60;;;;;;;;;;5020068;28;20053;-81
2023/06/25 05:53:01;;;;;;;14.38;8.57;;;;;;;;;;5003386;28;20061;-81
2023/06/25 05:55:28;;;;;;;16.67;9.52;;;;;;;;;;5008933;28;20573;-82
2023/06/25 05:57:54;;;;;;;12.45;8.60;;;;;;;;;;5033715;28;20038;-81
2023/06/25 06:00:23;;;;;;;20.33;9.27;;;;;;;;;;5026879;28;20033;-82
2023/06/25 06:02:49;;;;;;;11.35;7.82;;;;;;;;;;5016843;28;20102;-81
2023/06/25 06:05:16;;;;;;;11.38;7.95;;;;;;;;;;5024831;28;20048;-81
2023/06/25 06:07:43;;;;;;;11.73;8.20;;;;;;;;;;5009599;28;20053;-83
2023/06/25 06:10:10;;;;;;;17.20;7.93;;;;;;;;;;5012868;28;20638;-80
2023/06/25 06:12:37;;;;;;;16.55;8.35;;;;;;;;;;4992207;28;20083;-82
2023/06/25 06:15:04;;;;;;;11.38;7.72;;;;;;;;;;5032322;28;20052;-81
2023/06/25 06:17:30;;;;;;;13.95;7.55;;;;;;;;;;5001960;28;20119;-82
2023/06/25 06:19:57;;;;;;;15.18;7.53;;;;;;;;;;5036119;28;20049;-82
2023/06/25 06:22:24;;;;;;;10.70;6.82;;;;;;;;;;5033888;28;20057;-81
2023/06/25 06:24:50;;;;;;;12.00;7.03;;;;;;;;;;5037893;28;20525;-81
2023/06/25 06:27:17;;;;;;;14.50;6.93;;;;;;;;;;5018564;28;20045;-82
2023/06/25 06:29:44;;;;;;;11.55;7.03;;;;;;;;;;5020440;28;20079;-80
2023/06/25 06:32:10;;;;;;;11.18;7.10;;;;;;;;;;5009162;28;20044;-79
2023/06/25 06:34:37;;;;;;;9.13;6.43;;;;;;;;;;4995536;28;20072;-81
2023/06/25 06:37:05;;;;;;;12.13;6.97;;;;;;;;;;4992422;28;20046;-81
2023/06/25 06:39:32;;;;;;;11.88;6.35;;;;;;;;;;5020792;28;20041;-80
2023/06/25 06:41:59;;;;;;;9.60;6.95;;;;;;;;;;5022478;28;20125;-80
2023/06/25 06:44:25;;;;;;;10.80;6.30;;;;;;;;;;5029562;28;20049;-81
2023/06/25 06:46:52;;;;;;;12.52;6.63;;;;;;;;;;5026918;28;20155;-81
2023/06/25 06:49:19;;;;;;;11.68;6.55;;;;;;;;;;5008049;28;20069;-82
2023/06/25 06:51:46;;;;;;;13.25;5.95;;;;;;;;;;5016332;28;20049;-82
2023/06/25 06:54:13;;;;;;;12.48;5.35;;;;;;;;;;5009314;28;20129;-81
2023/06/25 06:56:39;;;;;;;8.77;6.20;;;;;;;;;;5005412;28;20407;-80
2023/06/25 06:59:06;;;;;;;9.63;6.10;;;;;;;;;;5027483;28;20132;-81
2023/06/25 07:01:33;;;;;;;7.25;5.63;;;;;;;;;;4996608;28;20207;-81
2023/06/25 07:04:00;;;;;;;7.65;5.13;;;;;;;;;;5008369;28;20099;-82
2023/06/25 07:06:27;;;;;;;10.23;5.75;;;;;;;;;;4983757;28;20129;-81
2023/06/25 07:08:53;;;;;;;12.57;5.88;;;;;;;;;;5005763;28;20042;-82
2023/06/25 07:11:20;;;;;;;10.15;5.60;;;;;;;;;;5025275;28;20077;-82
2023/06/25 07:13:47;;;;;;;8.82;5.57;;;;;;;;;;5026909;28;20555;-81
2023/06/25 07:16:14;;;;;;;8.48;4.72;;;;;;;;;;5014935;28;20061;-82
2023/06/25 07:18:42;;;;;;;7.50;4.43;;;;;;;;;;4999750;28;20046;-83
2023/06/25 07:21:09;;;;;;;8.65;5.03;;;;;;;;;;5032807;28;20128;-83
2023/06/25 07:23:36;;;;;;;9.18;5.13;;;;;;;;;;5010544;28;20045;-82
2023/06/25 07:26:03;;;;;;;11.48;5.32;;;;;;;;;;5011818;28;20057;-82
2023/06/25 07:28:30;;;;;;;6.80;4.72;;;;;;;;;;5014897;28;20114;-81
2023/06/25 07:30:57;;;;;;;9.10;4.80;;;;;;;;;;5035806;28;20110;-82
2023/06/25 07:33:23;;;;;;;6.05;4.53;;;;;;;;;;5013199;28;20060;-81
2023/06/25 07:35:50;;;;;;;10.10;4.20;;;;;;;;;;5032369;28;20096;-81
2023/06/25 07:38:16;;;;;;;8.70;4.75;;;;;;;;;;5017182;28;20244;-82
2023/06/25 07:40:43;;;;;;;5.93;4.25;;;;;;;;;;5022783;28;20105;-82
2023/06/25 07:43:10;;;;;;;7.43;4.68;;;;;;;;;;5017295;28;20522;-81
2023/06/25 07:45:38;;;;;;;5.97;3.97;;;;;;;;;;5017145;28;20050;-82
2023/06/25 07:48:05;;;;;;;6.50;4.45;;;;;;;;;;5013018;28;20045;-82
2023/06/25 07:50:32;;;;;;;8.50;4.38;;;;;;;;;;5016994;28;20116;-81
2023/06/25 07:52:59;;;;;;;8.23;4.65;;;;;;;;;;5014521;28;20105;-80
2023/06/25 07:55:26;;;;;;;6.93;4.53;;;;;;;;;;5038196;28;20076;-81
2023/06/25 07:57:53;;;;;;;6.45;4.43;;;;;;;;;;5014727;28;20066;-82
2023/06/25 08:00:20;;;;;;;6.90;4.25;;;;;;;;;;5038014;28;20045;-82
2023/06/25 08:02:49;;;;;;;11.70;4.85;;;;;;;;;;5015685;28;20108;-81
2023/06/25 08:05:16;;;;;;;6.80;4.50;;;;;;;;;;5018892;28;20037;-80
2023/06/25 08:07:42;;;;;;;7.78;5.03;;;;;;;;;;5023999;28;20049;-81
2023/06/25 08:10:09;;;;;;;7.68;4.60;;;;;;;;;;5038259;28;20045;-82
2023/06/25 08:12:36;;;;;;;5.88;4.40;;;;;;;;;;5005748;28;20088;-81
2023/06/25 08:15:03;;;;;;;6.38;4.20;;;;;;;;;;4994008;28;20526;-81
2023/06/25 08:17:30;;;;;;;7.50;4.97;;;;;;;;;;5021076;28;20112;-79
2023/06/25 08:19:56;;;;;;;8.55;4.68;;;;;;;;;;5039249;28;20053;-80
2023/06/25 08:22:23;;;;;;;6.15;4.43;;;;;;;;;;5038888;28;20068;-81
2023/06/25 08:24:50;;;;;;;6.38;4.45;;;;;;;;;;5025561;28;20088;-81
2023/06/25 08:27:17;;;;;;;9.68;4.93;;;;;;;;;;5013808;28;20559;-81
2023/06/25 08:29:43;;;;;;;6.82;4.57;;;;;;;;;;5007227;28;20046;-82
2023/06/25 08:32:10;;;;;;;5.53;4.03;;;;;;;;;;5022977;28;20049;-80
2023/06/25 08:34:37;;;;;;;6.55;4.15;;;;;;;;;;5037037;28;20057;-81
2023/06/25 08:37:04;;;;;;;9.48;4.10;;;;;;;;;;5014102;28;20245;-81
2023/06/25 08:39:31;;;;;;;8.27;4.50;;;;;;;;;;5028797;28;20064;-80
2023/06/25 08:41:58;;;;;;;8.38;4.15;;;;;;;;;;5031795;28;20058;-78
2023/06/25 08:44:25;;;;;;;5.82;3.90;;;;;;;;;;5014191;28;20046;-80
2023/06/25 08:46:54;;;;;;;7.20;4.05;;;;;;;;;;5018991;28;20053;-81
2023/06/25 08:49:22;;;;;;;5.93;3.65;;;;;;;;;;5039644;28;20061;-80
2023/06/25 08:51:52;;;;;;;4.47;3.50;;;;;;;;;;5025545;28;20223;-80
2023/06/25 08:54:18;;;;;;;5.82;3.92;;;;;;;;;;5016227;28;20042;-82
2023/06/25 08:56:45;;;;;;;6.55;3.92;;;;;;;;;;5021152;28;20122;-80
2023/06/25 08:59:14;;;;;;;7.68;3.85;;;;;;;;;;5012966;28;20065;-81
2023/06/25 09:01:41;;;;;;;6.70;3.80;;;;;;;;;;5019721;28;20042;-81
2023/06/25 09:04:07;;;;;;;6.30;3.60;;;;;;;;;;5014035;28;20109;-80
2023/06/25 09:06:40;;;;;;;5.22;3.85;;;;;;;;;;5018301;28;20080;-80
2023/06/25 09:09:30;;;;;;;5.38;3.72;;;;;;;;;;5012671;28;20045;-83
2023/06/25 09:11:57;;;;;;;5.18;3.80;;;;;;;;;;5008727;28;20076;-81
2023/06/25 09:14:23;;;;;;;5.03;3.53;;;;;;;;;;5003919;28;20058;-81
2023/06/25 09:16:50;;;;;;;6.60;3.83;;;;;;;;;;5041731;28;20085;-80
2023/06/25 09:19:18;;;;;;;5.28;3.50;;;;;;;;;;5046260;28;20053;-82
2023/06/25 09:21:46;;;;;;;6.05;3.70;;;;;;;;;;5030781;28;20041;-82
2023/06/25 09:24:16;;;;;;;5.65;3.70;;;;;;;;;;5040570;28;20033;-82
2023/06/25 09:26:43;;;;;;;5.88;4.10;;;;;;;;;;5021072;28;20128;-80
2023/06/25 09:29:10;;;;;;;4.15;3.45;;;;;;;;;;5046762;28;20056;-84
2023/06/25 09:31:39;;;;;;;4.38;3.70;;;;;;;;;;5041660;28;20053;-81
2023/06/25 09:34:06;;;;;;;5.88;4.18;;;;;;;;;;5033506;28;20100;-82
2023/06/25 09:36:33;;;;;;;5.47;3.70;;;;;;;;;;5047542;28;20101;-81
2023/06/25 09:39:05;;;;;;;4.03;3.13;;;;;;;;;;5013398;28;20064;-81
2023/06/25 09:41:36;;;;;;;7.20;3.72;;;;;;;;;;5044428;28;20037;-83
2023/06/25 09:44:04;;;;;;;5.45;3.70;;;;;;;;;;5027089;28;20050;-82
2023/06/25 09:46:32;;;;;;;6.00;3.50;;;;;;;;;;5031530;28;20065;-81
2023/06/25 09:49:01;;;;;;;5.28;3.53;;;;;;;;;;5040313;28;20032;-81
2023/06/25 09:51:30;;;;;;;5.35;3.63;;;;;;;;;;5032266;28;20049;-81
2023/06/25 09:54:01;;;;;;;5.72;3.70;;;;;;;;;;5044814;28;20063;-81
2023/06/25 09:56:28;;;;;;;5.85;3.83;;;;;;;;;;5023317;28;20105;-81
2023/06/25 09:58:55;;;;;;;6.30;3.60;;;;;;;;;;5042157;28;20053;-80
2023/06/25 10:01:21;;;;;;;5.78;3.78;;;;;;;;;;5025437;28;20277;-83
2023/06/25 10:03:48;;;;;;;3.92;3.30;;;;;;;;;;5033323;28;20084;-82
2023/06/25 10:06:15;;;;;;;5.63;3.53;;;;;;;;;;5021511;28;20057;-82
2023/06/25 10:08:41;;;;;;;4.00;3.40;;;;;;;;;;5045123;28;20065;-85
2023/06/25 10:11:08;;;;;;;5.88;3.38;;;;;;;;;;5040644;28;20064;-79
2023/06/25 10:13:39;;;;;;;4.40;3.22;;;;;;;;;;5031893;28;20053;-81
2023/06/25 10:16:05;;;;;;;6.57;3.63;;;;;;;;;;5015712;28;20045;-84
2023/06/25 10:18:39;;;;;;;4.65;3.15;;;;;;;;;;5033184;28;20131;-79
2023/06/25 10:21:06;;;;;;;4.70;3.20;;;;;;;;;;5012281;28;20049;-78
2023/06/25 10:23:35;;;;;;;3.58;3.00;;;;;;;;;;5010107;28;20041;-78
2023/06/25 10:26:02;;;;;;;5.45;3.30;;;;;;;;;;4992658;28;20049;-79
2023/06/25 10:28:30;;;;;;;5.40;3.28;;;;;;;;;;4991137;28;20072;-79
2023/06/25 10:31:10;;;;;;;4.50;3.17;;;;;;;;;;5012066;28;20057;-79
2023/06/25 10:33:37;;;;;;;4.57;2.97;;;;;;;;;;4995232;28;20045;-79
2023/06/25 10:36:06;;;;;;;5.40;3.00;;;;;;;;;;4992109;28;20054;-79
2023/06/25 10:38:35;;;;;;;4.65;3.13;;;;;;;;;;5011200;28;20056;-78
2023/06/25 10:41:12;;;;;;;4.97;3.10;;;;;;;;;;4994857;28;20100;-78
2023/06/25 10:43:46;;;;;;;4.35;2.95;;;;;;;;;;4987173;28;20128;-79
2023/06/25 10:46:13;;;;;;;8.32;3.17;;;;;;;;;;5005974;28;20080;-78
2023/06/25 10:48:44;;;;;;;3.78;3.13;;;;;;;;;;5009530;28;20049;-79
2023/06/25 10:51:11;;;;;;;13.57;3.20;;;;;;;;;;5002440;28;20045;-78
2023/06/25 10:53:38;;;;;;;3.30;2.97;;;;;;;;;;4998747;28;20068;-78
2023/06/25 10:56:04;;;;;;;7.30;2.70;;;;;;;;;;5000921;28;20654;-78
2023/06/25 10:58:31;;;;;;;4.00;2.72;;;;;;;;;;4997415;28;20136;-81
2023/06/25 11:00:58;;;;;;;5.40;2.97;;;;;;;;;;5008610;28;20046;-78
2023/06/25 11:03:28;;;;;;;4.75;3.17;;;;;;;;;;5019896;28;20552;-78
2023/06/25 11:06:01;;;;;;;3.65;3.05;;;;;;;;;;5008780;28;20053;-79
2023/06/25 11:08:29;;;;;;;5.88;3.40;;;;;;;;;;5009469;28;20049;-81
2023/06/25 11:10:58;;;;;;;3.83;2.90;;;;;;;;;;4992348;28;20076;-83
2023/06/25 11:13:24;;;;;;;3.83;3.42;;;;;;;;;;5017837;28;20129;-89
2023/06/25 11:15:51;;;;;;;7.07;3.25;;;;;;;;;;5014137;28;20045;-82
2023/06/25 11:18:20;;;;;;;4.03;3.00;;;;;;;;;;4998229;28;20134;-84
2023/06/25 11:20:47;;;;;;;4.95;3.05;;;;;;;;;;4992111;28;20501;-81
2023/06/25 11:23:14;;;;;;;3.65;2.90;;;;;;;;;;5020543;28;20081;-83
2023/06/25 11:25:40;;;;;;;4.35;3.20;;;;;;;;;;4976937;28;20050;-86
2023/06/25 11:28:11;;;;;;;5.10;2.83;;;;;;;;;;5006465;28;20049;-81
2023/06/25 11:30:37;;;;;;;4.88;3.03;;;;;;;;;;5008989;28;20050;-86
2023/06/25 11:33:11;;;;;;;6.85;3.03;;;;;;;;;;5005572;28;20444;-84
2023/06/25 11:35:38;;;;;;;3.90;3.13;;;;;;;;;;5028381;28;20062;-83
2023/06/25 11:38:05;;;;;;;6.07;3.13;;;;;;;;;;5005860;28;20407;-82
2023/06/25 11:40:38;;;;;;;4.05;3.08;;;;;;;;;;4990578;28;20053;-80
2023/06/25 11:43:07;;;;;;;5.05;3.13;;;;;;;;;;5002335;28;20092;-83
2023/06/25 11:45:43;;;;;;;4.13;2.83;;;;;;;;;;5015093;28;20140;-83
2023/06/25 11:48:13;;;;;;;6.80;3.10;;;;;;;;;;5008485;28;20057;-83
2023/06/25 11:50:40;;;;;;;3.92;2.85;;;;;;;;;;5038892;28;20057;-82
2023/06/25 11:53:07;;;;;;;5.95;3.20;;;;;;;;;;5032164;28;20037;-81
2023/06/25 11:55:34;;;;;;;4.03;3.22;;;;;;;;;;5028531;28;20225;-80
2023/06/25 11:58:01;;;;;;;4.25;3.30;;;;;;;;;;5006779;28;20399;-80
2023/06/25 12:00:28;;;;;;;8.20;3.20;;;;;;;;;;5009599;28;20053;-80
2023/06/25 12:02:55;;;;;;;4.18;2.80;;;;;;;;;;5012937;28;20129;-80
2023/06/25 12:05:22;;;;;;;4.00;3.00;;;;;;;;;;5026003;28;20072;-79
2023/06/25 12:07:49;;;;;;;5.10;3.30;;;;;;;;;;5037218;28;20077;-82
2023/06/25 12:10:15;;;;;;;3.40;3.10;;;;;;;;;;5000632;28;20484;-80
2023/06/25 12:12:44;;;;;;;5.13;3.08;;;;;;;;;;5008680;28;20124;-83
2023/06/25 12:15:19;;;;;;;4.13;2.63;;;;;;;;;;5014990;28;20041;-81
2023/06/25 12:17:46;;;;;;;3.05;2.50;;;;;;;;;;5006151;28;20099;-84
2023/06/25 12:20:13;;;;;;;3.28;2.92;;;;;;;;;;4993776;28;20061;-80
2023/06/25 12:22:39;;;;;;;3.05;2.70;;;;;;;;;;5004039;28;20050;-82
2023/06/25 12:25:17;;;;;;;4.07;2.88;;;;;;;;;;5007432;28;20110;-81
2023/06/25 12:27:53;;;;;;;2.95;2.67;;;;;;;;;;5011670;28;20072;-80
2023/06/25 12:30:20;;;;;;;2.90;2.60;;;;;;;;;;5010280;28;20057;-81
2023/06/25 12:32:47;;;;;;;4.90;2.85;;;;;;;;;;4991758;28;20065;-81
2023/06/25 12:35:13;;;;;;;2.95;2.65;;;;;;;;;;5010897;28;20668;-80
2023/06/25 12:37:40;;;;;;;2.90;2.60;;;;;;;;;;5006839;28;20380;-82
2023/06/25 12:40:08;;;;;;;5.72;2.72;;;;;;;;;;4998792;28;20057;-78
2023/06/25 12:42:35;;;;;;;4.20;2.70;;;;;;;;;;5035724;28;20804;-80
2023/06/25 12:45:11;;;;;;;3.67;2.42;;;;;;;;;;4996568;28;20041;-82
2023/06/25 12:47:45;;;;;;;4.03;2.90;;;;;;;;;;5007268;28;20055;-79
2023/06/25 12:50:16;;;;;;;3.45;2.65;;;;;;;;;;5013621;28;20558;-79
2023/06/25 12:52:43;;;;;;;3.05;2.70;;;;;;;;;;5017452;28;20053;-82
2023/06/25 12:55:09;;;;;;;3.65;2.70;;;;;;;;;;4984975;28;20064;-80
2023/06/25 12:57:36;;;;;;;3.38;2.83;;;;;;;;;;5021159;28;20058;-83
2023/06/25 13:00:06;;;;;;;4.72;2.55;;;;;;;;;;5021910;28;20048;-81
2023/06/25 13:02:52;;;;;;;2.92;2.60;;;;;;;;;;5049911;28;20052;-82
2023/06/25 13:05:37;;;;;;;5.18;2.85;;;;;;;;;;5041754;28;20072;-80
2023/06/25 13:08:04;;;;;;;4.60;2.75;;;;;;;;;;4987039;28;20410;-80
2023/06/25 13:10:32;;;;;;;7.78;2.90;;;;;;;;;;4996339;28;20045;-78
2023/06/25 13:12:58;;;;;;;4.22;2.50;;;;;;;;;;5011009;28;20209;-79
2023/06/25 13:15:25;;;;;;;4.32;2.80;;;;;;;;;;5009534;28;20660;-79
2023/06/25 13:17:52;;;;;;;4.93;2.80;;;;;;;;;;5026678;28;20046;-78
2023/06/25 13:20:21;;;;;;;3.17;2.67;;;;;;;;;;5031245;28;20049;-79
2023/06/25 13:22:48;;;;;;;3.63;2.72;;;;;;;;;;5013165;28;20442;-79
2023/06/25 13:25:14;;;;;;;3.17;2.83;;;;;;;;;;5031475;28;20045;-80
2023/06/25 13:27:41;;;;;;;5.28;2.90;;;;;;;;;;5007233;28;20066;-79
2023/06/25 13:30:08;;;;;;;4.30;2.60;;;;;;;;;;5010709;28;20046;-80
2023/06/25 13:32:38;;;;;;;5.35;2.70;;;;;;;;;;5009488;28;20095;-78
2023/06/25 13:35:05;;;;;;;3.72;2.90;;;;;;;;;;5021441;28;20414;-82
2023/06/25 13:37:32;;;;;;;3.50;2.80;;;;;;;;;;5018632;28;20545;-80
2023/06/25 13:40:04;;;;;;;3.95;2.75;;;;;;;;;;5001531;28;20453;-80
2023/06/25 13:42:32;;;;;;;4.10;2.90;;;;;;;;;;4993116;28;20542;-82
2023/06/25 13:44:59;;;;;;;4.72;2.92;;;;;;;;;;4997202;28;20390;-81
2023/06/25 13:47:26;;;;;;;4.65;2.97;;;;;;;;;;5029641;28;20064;-83
2023/06/25 13:49:52;;;;;;;4.38;3.15;;;;;;;;;;4992004;28;20053;-83
2023/06/25 13:52:19;;;;;;;3.20;2.72;;;;;;;;;;4999781;28;20113;-81
2023/06/25 13:54:45;;;;;;;5.68;2.95;;;;;;;;;;5004596;28;20066;-80
2023/06/25 13:57:12;;;;;;;3.35;2.70;;;;;;;;;;5019663;28;20075;-82
2023/06/25 13:59:38;;;;;;;9.13;3.00;;;;;;;;;;5009824;28;20280;-80
2023/06/25 14:02:35;;;;;;;2.92;2.63;;;;;;;;;;5017666;28;20045;-82
2023/06/25 14:05:28;;;;;;;3.47;2.70;;;;;;;;;;5031262;28;20025;-82
2023/06/25 14:08:05;;;;;;;5.78;2.83;;;;;;;;;;5018312;28;20063;-78
2023/06/25 14:10:37;;;;;;;8.25;2.95;;;;;;;;;;5021138;28;20061;-84
2023/06/25 14:13:04;;;;;;;3.08;2.78;;;;;;;;;;5020881;28;20060;-83
2023/06/25 14:15:30;;;;;;;3.60;2.80;;;;;;;;;;5039326;28;20040;-82
2023/06/25 14:17:59;;;;;;;23.27;5.78;;;;;;;;;;5034876;28;20045;-80
2023/06/25 14:20:28;;;;;;;5.40;2.70;;;;;;;;;;4989512;28;20048;-80
2023/06/25 14:22:57;;;;;;;4.90;2.80;;;;;;;;;;5015189;28;20060;-79
2023/06/25 14:25:24;;;;;;;3.72;2.80;;;;;;;;;;4999554;28;20080;-80
2023/06/25 14:27:54;;;;;;;4.55;2.70;;;;;;;;;;5006511;28;20413;-82
2023/06/25 14:30:20;;;;;;;3.78;2.67;;;;;;;;;;5000584;28;20069;-84
2023/06/25 14:32:47;;;;;;;3.95;2.92;;;;;;;;;;5008306;28;20045;-78
2023/06/25 14:35:14;;;;;;;7.80;3.00;;;;;;;;;;4997413;28;20038;-82
2023/06/25 14:37:40;;;;;;;4.65;2.75;;;;;;;;;;5011691;28;20497;-81